sensor_id;sensor_type;location;lat;lon;timestamp;pressure;altitude;pressure_sealevel;temperature;humidity
61870;BME280;47810;42.264;23.826;2022-11-13T00:00:04;95270.09;;;7.73;84.20
61870;BME280;47810;42.264;23.826;2022-11-13T00:02:41;95274.00;;;7.59;83.86
61870;BME280;47810;42.264;23.826;2022-11-13T00:05:06;95269.69;;;7.58;83.72
61870;BME280;47810;42.264;23.826;2022-11-13T00:07:32;95272.22;;;7.61;83.79
61870;BME280;47810;42.264;23.826;2022-11-13T00:09:57;95280.03;;;7.63;83.62
61870;BME280;47810;42.264;23.826;2022-11-13T00:12:23;95274.88;;;7.60;83.17
61870;BME280;47810;42.264;23.826;2022-11-13T00:14:48;95270.38;;;7.63;83.01
61870;BME280;47810;42.264;23.826;2022-11-13T00:17:14;95266.53;;;7.74;83.56
61870;BME280;47810;42.264;23.826;2022-11-13T00:19:40;95264.44;;;7.85;83.54
61870;BME280;47810;42.264;23.826;2022-11-13T00:22:05;95259.38;;;7.79;82.92
61870;BME280;47810;42.264;23.826;2022-11-13T00:24:31;95260.19;;;7.81;83.03
61870;BME280;47810;42.264;23.826;2022-11-13T00:26:56;95260.22;;;7.79;83.02
61870;BME280;47810;42.264;23.826;2022-11-13T00:29:22;95258.47;;;7.80;82.88
61870;BME280;47810;42.264;23.826;2022-11-13T00:31:47;95251.56;;;7.77;82.87
61870;BME280;47810;42.264;23.826;2022-11-13T00:34:13;95249.91;;;7.73;83.44
61870;BME280;47810;42.264;23.826;2022-11-13T00:36:39;95251.88;;;7.66;83.43
61870;BME280;47810;42.264;23.826;2022-11-13T00:39:04;95237.03;;;7.65;83.46
61870;BME280;47810;42.264;23.826;2022-11-13T00:41:30;95236.06;;;7.68;83.25
61870;BME280;47810;42.264;23.826;2022-11-13T00:43:55;95239.91;;;7.58;83.50
61870;BME280;47810;42.264;23.826;2022-11-13T00:46:21;95237.28;;;7.58;83.82
61870;BME280;47810;42.264;23.826;2022-11-13T00:48:47;95236.06;;;7.68;83.80
61870;BME280;47810;42.264;23.826;2022-11-13T00:51:12;95235.13;;;7.70;83.83
61870;BME280;47810;42.264;23.826;2022-11-13T00:53:38;95245.41;;;7.77;83.81
61870;BME280;47810;42.264;23.826;2022-11-13T00:56:03;95236.41;;;7.57;83.98
61870;BME280;47810;42.264;23.826;2022-11-13T00:58:29;95236.50;;;7.54;84.46
61870;BME280;47810;42.264;23.826;2022-11-13T01:01:02;95235.03;;;7.45;84.38
61870;BME280;47810;42.264;23.826;2022-11-13T01:03:28;95232.34;;;7.47;84.54
61870;BME280;47810;42.264;23.826;2022-11-13T01:05:54;95228.50;;;7.57;84.94
61870;BME280;47810;42.264;23.826;2022-11-13T01:08:19;95229.69;;;7.49;85.31
61870;BME280;47810;42.264;23.826;2022-11-13T01:10:46;95225.47;;;7.43;85.42
61870;BME280;47810;42.264;23.826;2022-11-13T01:13:12;95221.94;;;7.44;85.25
61870;BME280;47810;42.264;23.826;2022-11-13T01:15:42;95225.22;;;7.51;85.20
61870;BME280;47810;42.264;23.826;2022-11-13T01:18:08;95218.16;;;7.53;85.63
61870;BME280;47810;42.264;23.826;2022-11-13T01:20:40;95225.47;;;7.43;85.69
61870;BME280;47810;42.264;23.826;2022-11-13T01:23:06;95218.50;;;7.42;85.70
61870;BME280;47810;42.264;23.826;2022-11-13T01:25:31;95222.75;;;7.46;85.97
61870;BME280;47810;42.264;23.826;2022-11-13T01:27:57;95222.13;;;7.38;86.19
61870;BME280;47810;42.264;23.826;2022-11-13T01:30:23;95210.00;;;7.34;86.15
61870;BME280;47810;42.264;23.826;2022-11-13T01:32:48;95209.59;;;7.46;86.36
61870;BME280;47810;42.264;23.826;2022-11-13T01:35:14;95204.47;;;7.41;86.27
61870;BME280;47810;42.264;23.826;2022-11-13T01:37:39;95214.78;;;7.49;86.39
61870;BME280;47810;42.264;23.826;2022-11-13T01:40:06;95200.81;;;7.47;85.91
61870;BME280;47810;42.264;23.826;2022-11-13T01:42:32;95200.88;;;7.45;86.56
61870;BME280;47810;42.264;23.826;2022-11-13T01:44:58;95200.16;;;7.40;86.60
61870;BME280;47810;42.264;23.826;2022-11-13T01:47:26;95192.41;;;7.36;86.68
61870;BME280;47810;42.264;23.826;2022-11-13T01:49:54;95189.06;;;7.31;86.92
61870;BME280;47810;42.264;23.826;2022-11-13T01:52:24;95195.75;;;7.41;87.06
61870;BME280;47810;42.264;23.826;2022-11-13T01:55:05;95182.97;;;7.30;87.06
61870;BME280;47810;42.264;23.826;2022-11-13T01:57:32;95178.75;;;7.24;87.18
61870;BME280;47810;42.264;23.826;2022-11-13T02:00:01;95179.84;;;7.17;87.01
61870;BME280;47810;42.264;23.826;2022-11-13T02:02:28;95172.16;;;7.11;87.17
61870;BME280;47810;42.264;23.826;2022-11-13T02:04:53;95178.75;;;7.24;86.90
61870;BME280;47810;42.264;23.826;2022-11-13T02:07:20;95172.69;;;7.22;86.69
61870;BME280;47810;42.264;23.826;2022-11-13T02:09:47;95168.34;;;7.21;86.42
61870;BME280;47810;42.264;23.826;2022-11-13T02:12:14;95169.25;;;7.20;86.69
61870;BME280;47810;42.264;23.826;2022-11-13T02:14:44;95159.94;;;7.10;86.46
61870;BME280;47810;42.264;23.826;2022-11-13T02:17:15;95157.78;;;7.23;86.48
61870;BME280;47810;42.264;23.826;2022-11-13T02:19:44;95155.97;;;7.25;86.25
61870;BME280;47810;42.264;23.826;2022-11-13T02:24:40;95168.78;;;7.36;86.33
61870;BME280;47810;42.264;23.826;2022-11-13T02:27:09;95164.81;;;7.22;86.71
61870;BME280;47810;42.264;23.826;2022-11-13T02:29:36;95164.81;;;7.22;86.96
61870;BME280;47810;42.264;23.826;2022-11-13T02:32:02;95171.81;;;7.22;87.04
61870;BME280;47810;42.264;23.826;2022-11-13T02:34:28;95172.03;;;7.16;87.14
61870;BME280;47810;42.264;23.826;2022-11-13T02:36:53;95176.38;;;7.17;87.36
61870;BME280;47810;42.264;23.826;2022-11-13T02:39:19;95174.84;;;7.10;87.03
61870;BME280;47810;42.264;23.826;2022-11-13T02:41:44;95180.84;;;7.13;86.87
61870;BME280;47810;42.264;23.826;2022-11-13T02:44:10;95178.75;;;7.24;86.87
61870;BME280;47810;42.264;23.826;2022-11-13T02:46:36;95178.66;;;7.28;87.32
61870;BME280;47810;42.264;23.826;2022-11-13T02:49:02;95174.41;;;7.23;87.57
61870;BME280;47810;42.264;23.826;2022-11-13T02:51:27;95173.78;;;7.15;87.59
61870;BME280;47810;42.264;23.826;2022-11-13T02:53:54;95170.94;;;7.23;87.94
61870;BME280;47810;42.264;23.826;2022-11-13T02:56:20;95169.34;;;7.17;87.78
61870;BME280;47810;42.264;23.826;2022-11-13T02:58:46;95173.56;;;7.23;87.97
61870;BME280;47810;42.264;23.826;2022-11-13T03:01:11;95180.75;;;7.16;88.24
61870;BME280;47810;42.264;23.826;2022-11-13T03:03:37;95185.25;;;7.13;88.21
61870;BME280;47810;42.264;23.826;2022-11-13T03:06:02;95181.72;;;7.14;88.57
61870;BME280;47810;42.264;23.826;2022-11-13T03:08:28;95178.25;;;7.12;88.13
61870;BME280;47810;42.264;23.826;2022-11-13T03:10:54;95181.34;;;7.26;88.09
61870;BME280;47810;42.264;23.826;2022-11-13T03:13:20;95181.44;;;7.23;87.87
61870;BME280;47810;42.264;23.826;2022-11-13T03:15:45;95178.75;;;7.24;87.98
61870;BME280;47810;42.264;23.826;2022-11-13T03:18:11;95179.47;;;7.30;88.00
61870;BME280;47810;42.264;23.826;2022-11-13T03:20:38;95180.66;;;7.19;87.85
61870;BME280;47810;42.264;23.826;2022-11-13T03:23:04;95182.38;;;7.20;88.35
61870;BME280;47810;42.264;23.826;2022-11-13T03:25:31;95188.50;;;7.21;88.59
61870;BME280;47810;42.264;23.826;2022-11-13T03:27:57;95187.81;;;7.14;88.50
61870;BME280;47810;42.264;23.826;2022-11-13T03:30:22;95186.28;;;7.07;88.41
61870;BME280;47810;42.264;23.826;2022-11-13T03:32:51;95192.25;;;7.12;88.80
61870;BME280;47810;42.264;23.826;2022-11-13T03:35:17;95186.88;;;7.17;88.86
61870;BME280;47810;42.264;23.826;2022-11-13T03:37:42;95188.56;;;7.19;88.85
61870;BME280;47810;42.264;23.826;2022-11-13T03:40:08;95193.84;;;7.18;88.79
61870;BME280;47810;42.264;23.826;2022-11-13T03:42:33;95187.72;;;7.17;88.73
61870;BME280;47810;42.264;23.826;2022-11-13T03:45:00;95184.28;;;7.15;88.80
61870;BME280;47810;42.264;23.826;2022-11-13T03:47:26;95182.66;;;7.11;88.89
61870;BME280;47810;42.264;23.826;2022-11-13T03:49:51;95188.47;;;7.22;88.36
61870;BME280;47810;42.264;23.826;2022-11-13T03:52:17;95187.53;;;7.23;88.33
61870;BME280;47810;42.264;23.826;2022-11-13T03:54:42;95187.44;;;7.27;88.28
61870;BME280;47810;42.264;23.826;2022-11-13T03:57:08;95188.06;;;7.35;88.02
61870;BME280;47810;42.264;23.826;2022-11-13T03:59:35;95188.88;;;7.37;87.75
61870;BME280;47810;42.264;23.826;2022-11-13T04:02:00;95191.41;;;7.40;87.69
61870;BME280;47810;42.264;23.826;2022-11-13T04:04:26;95191.41;;;7.40;87.63
61870;BME280;47810;42.264;23.826;2022-11-13T04:06:51;95187.06;;;7.39;87.51
61870;BME280;47810;42.264;23.826;2022-11-13T04:09:17;95183.72;;;7.34;87.72
61870;BME280;47810;42.264;23.826;2022-11-13T04:11:42;95190.84;;;7.30;87.32
61870;BME280;47810;42.264;23.826;2022-11-13T04:14:08;95188.72;;;7.41;87.11
61870;BME280;47810;42.264;23.826;2022-11-13T04:16:33;95190.78;;;7.32;87.76
61870;BME280;47810;42.264;23.826;2022-11-13T04:18:59;95202.94;;;7.36;87.14
61870;BME280;47810;42.264;23.826;2022-11-13T04:21:24;95193.94;;;7.43;86.94
61870;BME280;47810;42.264;23.826;2022-11-13T04:23:53;95200.91;;;7.44;87.14
61870;BME280;47810;42.264;23.826;2022-11-13T04:26:18;95191.41;;;7.40;86.62
61870;BME280;47810;42.264;23.826;2022-11-13T04:28:44;95189.59;;;7.42;86.46
61870;BME280;47810;42.264;23.826;2022-11-13T04:31:09;95189.88;;;7.33;86.46
61870;BME280;47810;42.264;23.826;2022-11-13T04:33:35;95186.22;;;7.38;86.59
61870;BME280;47810;42.264;23.826;2022-11-13T04:36:00;95185.91;;;7.47;86.32
61870;BME280;47810;42.264;23.826;2022-11-13T04:38:26;95190.38;;;7.45;85.77
61870;BME280;47810;42.264;23.826;2022-11-13T04:40:52;95180.53;;;7.51;85.78
61870;BME280;47810;42.264;23.826;2022-11-13T04:43:37;95192.72;;;7.53;85.69
61870;BME280;47810;42.264;23.826;2022-11-13T04:46:03;95192.78;;;7.52;85.89
61870;BME280;47810;42.264;23.826;2022-11-13T04:48:28;95188.78;;;7.40;85.57
61870;BME280;47810;42.264;23.826;2022-11-13T04:50:54;95185.91;;;7.47;85.36
61870;BME280;47810;42.264;23.826;2022-11-13T04:53:19;95188.50;;;7.49;85.33
61870;BME280;47810;42.264;23.826;2022-11-13T04:55:45;95192.81;;;7.50;85.52
61870;BME280;47810;42.264;23.826;2022-11-13T04:58:10;95188.28;;;7.55;85.02
61870;BME280;47810;42.264;23.826;2022-11-13T05:00:36;95201.44;;;7.55;85.18
61870;BME280;47810;42.264;23.826;2022-11-13T05:03:02;95205.75;;;7.30;85.35
61870;BME280;47810;42.264;23.826;2022-11-13T05:05:27;95207.81;;;7.48;85.45
61870;BME280;47810;42.264;23.826;2022-11-13T05:07:56;95210.66;;;7.40;85.12
61870;BME280;47810;42.264;23.826;2022-11-13T05:10:21;95204.44;;;7.43;85.50
61870;BME280;47810;42.264;23.826;2022-11-13T05:12:47;95198.72;;;7.30;85.07
61870;BME280;47810;42.264;23.826;2022-11-13T05:15:12;95203.69;;;7.39;85.35
61870;BME280;47810;42.264;23.826;2022-11-13T05:17:38;95203.59;;;7.42;85.09
61870;BME280;47810;42.264;23.826;2022-11-13T05:20:04;95206.25;;;7.41;84.89
61870;BME280;47810;42.264;23.826;2022-11-13T05:22:29;95201.19;;;7.35;85.30
61870;BME280;47810;42.264;23.826;2022-11-13T05:24:56;95209.78;;;7.40;85.00
61870;BME280;47810;42.264;23.826;2022-11-13T05:27:21;95213.47;;;7.34;85.12
61870;BME280;47810;42.264;23.826;2022-11-13T05:29:47;95220.41;;;7.37;85.14
61870;BME280;47810;42.264;23.826;2022-11-13T05:32:12;95222.50;;;7.26;85.17
61870;BME280;47810;42.264;23.826;2022-11-13T05:34:38;95222.38;;;7.29;85.43
61870;BME280;47810;42.264;23.826;2022-11-13T05:37:03;95228.81;;;7.20;85.69
61870;BME280;47810;42.264;23.826;2022-11-13T05:39:29;95225.25;;;7.21;85.37
61870;BME280;47810;42.264;23.826;2022-11-13T05:41:55;95237.13;;;7.34;85.23
61870;BME280;47810;42.264;23.826;2022-11-13T05:44:20;95237.44;;;7.23;84.43
61870;BME280;47810;42.264;23.826;2022-11-13T05:46:46;95237.78;;;7.13;84.72
61870;BME280;47810;42.264;23.826;2022-11-13T05:49:12;95234.91;;;7.20;83.73
61870;BME280;47810;42.264;23.826;2022-11-13T05:51:37;95240.25;;;7.17;84.06
61870;BME280;47810;42.264;23.826;2022-11-13T05:54:03;95234.09;;;7.18;84.14
61870;BME280;47810;42.264;23.826;2022-11-13T05:56:32;95236.44;;;7.28;84.12
61870;BME280;47810;42.264;23.826;2022-11-13T05:58:58;95252.38;;;7.21;84.32
61870;BME280;47810;42.264;23.826;2022-11-13T06:01:31;95247.97;;;7.23;84.11
61870;BME280;47810;42.264;23.826;2022-11-13T06:03:59;95245.25;;;7.27;83.61
61870;BME280;47810;42.264;23.826;2022-11-13T06:06:25;95243.63;;;7.22;84.30
61870;BME280;47810;42.264;23.826;2022-11-13T06:08:52;95247.03;;;7.24;84.18
61870;BME280;47810;42.264;23.826;2022-11-13T06:11:20;95255.72;;;7.56;83.16
61870;BME280;47810;42.264;23.826;2022-11-13T06:13:46;95256.84;;;7.47;83.52
61870;BME280;47810;42.264;23.826;2022-11-13T06:16:16;95255.88;;;7.52;83.72
61870;BME280;47810;42.264;23.826;2022-11-13T06:18:43;95259.81;;;7.37;83.68
61870;BME280;47810;42.264;23.826;2022-11-13T06:21:12;95262.16;;;7.46;83.71
61870;BME280;47810;42.264;23.826;2022-11-13T06:23:38;95257.81;;;7.45;83.62
61870;BME280;47810;42.264;23.826;2022-11-13T06:26:08;95263.03;;;7.46;83.69
61870;BME280;47810;42.264;23.826;2022-11-13T06:28:35;95261.06;;;7.53;83.70
61870;BME280;47810;42.264;23.826;2022-11-13T06:31:04;95262.78;;;7.54;83.46
61870;BME280;47810;42.264;23.826;2022-11-13T06:33:29;95265.41;;;7.54;83.70
61870;BME280;47810;42.264;23.826;2022-11-13T06:35:55;95267.34;;;7.47;83.73
61870;BME280;47810;42.264;23.826;2022-11-13T06:38:21;95257.31;;;7.60;83.88
61870;BME280;47810;42.264;23.826;2022-11-13T06:40:46;95256.66;;;7.54;83.60
61870;BME280;47810;42.264;23.826;2022-11-13T06:43:12;95259.38;;;7.51;83.92
61870;BME280;47810;42.264;23.826;2022-11-13T06:45:37;95260.16;;;7.54;84.07
61870;BME280;47810;42.264;23.826;2022-11-13T06:48:03;95261.59;;;7.64;83.45
61870;BME280;47810;42.264;23.826;2022-11-13T06:50:28;95255.63;;;7.59;83.74
61870;BME280;47810;42.264;23.826;2022-11-13T06:52:54;95263.59;;;7.56;84.10
61870;BME280;47810;42.264;23.826;2022-11-13T06:55:20;95261.19;;;7.77;83.95
61870;BME280;47810;42.264;23.826;2022-11-13T06:57:47;95260.97;;;7.56;83.57
61870;BME280;47810;42.264;23.826;2022-11-13T07:00:12;95258.34;;;7.56;84.28
61870;BME280;47810;42.264;23.826;2022-11-13T07:02:38;95256.16;;;7.70;83.69
61870;BME280;47810;42.264;23.826;2022-11-13T07:05:04;95254.41;;;7.69;83.92
61870;BME280;47810;42.264;23.826;2022-11-13T07:07:29;95246.50;;;7.71;83.76
61870;BME280;47810;42.264;23.826;2022-11-13T07:09:55;95250.09;;;7.67;83.71
61870;BME280;47810;42.264;23.826;2022-11-13T07:12:21;95251.88;;;7.66;83.83
61870;BME280;47810;42.264;23.826;2022-11-13T07:14:46;95254.59;;;7.63;83.58
61870;BME280;47810;42.264;23.826;2022-11-13T07:17:12;95255.34;;;7.68;83.88
61870;BME280;47810;42.264;23.826;2022-11-13T07:19:37;95252.13;;;7.87;83.72
61870;BME280;47810;42.264;23.826;2022-11-13T07:22:03;95259.19;;;7.85;83.73
61870;BME280;47810;42.264;23.826;2022-11-13T07:24:29;95255.94;;;7.77;83.60
61870;BME280;47810;42.264;23.826;2022-11-13T07:26:54;95254.03;;;7.82;83.82
61870;BME280;47810;42.264;23.826;2022-11-13T07:29:20;95253.38;;;7.75;83.34
61870;BME280;47810;42.264;23.826;2022-11-13T07:31:45;95260.03;;;7.85;83.59
61870;BME280;47810;42.264;23.826;2022-11-13T07:34:11;95257.56;;;7.81;83.51
61870;BME280;47810;42.264;23.826;2022-11-13T07:36:36;95262.19;;;7.73;83.97
61870;BME280;47810;42.264;23.826;2022-11-13T07:39:02;95252.31;;;7.81;83.50
61870;BME280;47810;42.264;23.826;2022-11-13T07:41:27;95254.66;;;7.90;83.80
61870;BME280;47810;42.264;23.826;2022-11-13T07:43:53;95254.69;;;7.88;84.12
61870;BME280;47810;42.264;23.826;2022-11-13T07:46:18;95251.41;;;7.82;84.28
61870;BME280;47810;42.264;23.826;2022-11-13T07:48:44;95256.41;;;7.89;84.38
61870;BME280;47810;42.264;23.826;2022-11-13T07:51:10;95250.66;;;7.77;84.01
61870;BME280;47810;42.264;23.826;2022-11-13T07:53:35;95251.56;;;7.77;84.06
61870;BME280;47810;42.264;23.826;2022-11-13T07:56:03;95256.75;;;7.79;84.04
61870;BME280;47810;42.264;23.826;2022-11-13T07:58:29;95257.47;;;7.84;84.05
61870;BME280;47810;42.264;23.826;2022-11-13T08:00:59;95257.66;;;7.78;84.10
61870;BME280;47810;42.264;23.826;2022-11-13T08:03:25;95252.91;;;7.62;83.85
61870;BME280;47810;42.264;23.826;2022-11-13T08:05:50;95257.88;;;7.72;83.97
61870;BME280;47810;42.264;23.826;2022-11-13T08:08:17;95257.19;;;7.93;84.57
61870;BME280;47810;42.264;23.826;2022-11-13T08:10:42;95260.91;;;7.86;84.01
61870;BME280;47810;42.264;23.826;2022-11-13T08:13:09;95262.38;;;7.66;84.24
61870;BME280;47810;42.264;23.826;2022-11-13T08:15:34;95267.91;;;7.87;84.04
61870;BME280;47810;42.264;23.826;2022-11-13T08:18:01;95269.63;;;7.86;83.64
61870;BME280;47810;42.264;23.826;2022-11-13T08:20:27;95259.47;;;7.76;83.96
61870;BME280;47810;42.264;23.826;2022-11-13T08:22:56;95271.72;;;7.77;84.42
61870;BME280;47810;42.264;23.826;2022-11-13T08:25:22;95262.75;;;7.84;84.58
61870;BME280;47810;42.264;23.826;2022-11-13T08:27:48;95266.06;;;7.89;84.62
61870;BME280;47810;42.264;23.826;2022-11-13T08:30:16;95264.34;;;7.88;84.56
61870;BME280;47810;42.264;23.826;2022-11-13T08:32:42;95264.63;;;7.79;84.62
61870;BME280;47810;42.264;23.826;2022-11-13T08:35:07;95266.97;;;7.88;84.62
61870;BME280;47810;42.264;23.826;2022-11-13T08:37:33;95270.81;;;7.78;84.62
61870;BME280;47810;42.264;23.826;2022-11-13T08:39:58;95265.75;;;7.72;85.14
61870;BME280;47810;42.264;23.826;2022-11-13T08:42:24;95262.94;;;7.78;84.82
61870;BME280;47810;42.264;23.826;2022-11-13T08:44:50;95270.75;;;7.79;85.01
61870;BME280;47810;42.264;23.826;2022-11-13T08:47:15;95268.22;;;7.76;85.41
61870;BME280;47810;42.264;23.826;2022-11-13T08:49:41;95275.16;;;7.79;85.15
61870;BME280;47810;42.264;23.826;2022-11-13T08:52:06;95271.72;;;7.77;85.36
61870;BME280;47810;42.264;23.826;2022-11-13T08:54:32;95269.91;;;7.79;85.24
61870;BME280;47810;42.264;23.826;2022-11-13T08:56:57;95271.41;;;7.86;84.79
61870;BME280;47810;42.264;23.826;2022-11-13T08:59:23;95270.53;;;8.13;84.60
61870;BME280;47810;42.264;23.826;2022-11-13T09:01:49;95271.66;;;8.06;84.40
61870;BME280;47810;42.264;23.826;2022-11-13T09:04:15;95274.88;;;7.88;84.04
61870;BME280;47810;42.264;23.826;2022-11-13T09:06:41;95272.03;;;7.94;84.40
61870;BME280;47810;42.264;23.826;2022-11-13T09:09:07;95271.47;;;8.11;84.56
61870;BME280;47810;42.264;23.826;2022-11-13T09:11:32;95273.28;;;8.09;83.77
61870;BME280;47810;42.264;23.826;2022-11-13T09:13:58;95274.09;;;8.12;83.98
61870;BME280;47810;42.264;23.826;2022-11-13T09:16:24;95266.22;;;8.11;83.94
61870;BME280;47810;42.264;23.826;2022-11-13T09:18:50;95272.53;;;8.05;83.38
61870;BME280;47810;42.264;23.826;2022-11-13T09:21:16;95268.16;;;8.06;83.44
61870;BME280;47810;42.264;23.826;2022-11-13T09:23:42;95269.31;;;7.97;83.80
61870;BME280;47810;42.264;23.826;2022-11-13T09:26:07;95274.47;;;8.00;84.10
61870;BME280;47810;42.264;23.826;2022-11-13T09:28:33;95274.41;;;8.02;84.02
61870;BME280;47810;42.264;23.826;2022-11-13T09:31:02;95277.69;;;8.08;83.91
61870;BME280;47810;42.264;23.826;2022-11-13T09:33:28;95273.16;;;8.13;83.30
61870;BME280;47810;42.264;23.826;2022-11-13T09:35:53;95261.41;;;8.24;83.56
61870;BME280;47810;42.264;23.826;2022-11-13T09:38:19;95257.44;;;8.37;83.03
61870;BME280;47810;42.264;23.826;2022-11-13T09:40:55;95260.66;;;8.20;83.07
61870;BME280;47810;42.264;23.826;2022-11-13T09:45:49;95258.75;;;8.25;82.69
61870;BME280;47810;42.264;23.826;2022-11-13T09:50:41;95246.91;;;8.37;82.88
61870;BME280;47810;42.264;23.826;2022-11-13T09:53:08;95252.13;;;8.40;82.55
61870;BME280;47810;42.264;23.826;2022-11-13T09:55:37;95248.44;;;8.44;82.51
61870;BME280;47810;42.264;23.826;2022-11-13T09:58:10;95253.97;;;8.38;82.36
61870;BME280;47810;42.264;23.826;2022-11-13T10:00:38;95244.94;;;8.45;82.05
61870;BME280;47810;42.264;23.826;2022-11-13T10:08:36;95235.25;;;8.46;81.45
61870;BME280;47810;42.264;23.826;2022-11-13T10:13:50;95236.53;;;8.59;81.40
61870;BME280;47810;42.264;23.826;2022-11-13T10:16:26;95233.97;;;8.57;80.72
61870;BME280;47810;42.264;23.826;2022-11-13T10:18:52;95231.91;;;8.66;80.37
61870;BME280;47810;42.264;23.826;2022-11-13T10:24:16;95227.19;;;8.75;79.79
61870;BME280;47810;42.264;23.826;2022-11-13T10:26:45;95232.19;;;8.58;80.32
61870;BME280;47810;42.264;23.826;2022-11-13T10:29:11;95229.19;;;8.69;80.87
61870;BME280;47810;42.264;23.826;2022-11-13T10:31:44;95222.66;;;8.79;80.30
61870;BME280;47810;42.264;23.826;2022-11-13T10:34:11;95219.97;;;8.80;79.93
61870;BME280;47810;42.264;23.826;2022-11-13T10:36:41;95224.63;;;8.74;80.10
61870;BME280;47810;42.264;23.826;2022-11-13T10:39:10;95215.59;;;8.79;79.79
61870;BME280;47810;42.264;23.826;2022-11-13T10:41:46;95225.41;;;8.76;79.55
61870;BME280;47810;42.264;23.826;2022-11-13T10:44:28;95215.97;;;8.70;80.04
61870;BME280;47810;42.264;23.826;2022-11-13T10:47:12;95210.72;;;8.70;80.06
61870;BME280;47810;42.264;23.826;2022-11-13T10:49:39;95204.63;;;8.68;80.09
61870;BME280;47810;42.264;23.826;2022-11-13T10:52:16;95201.28;;;8.63;80.21
61870;BME280;47810;42.264;23.826;2022-11-13T10:54:43;95203.13;;;8.61;80.25
61870;BME280;47810;42.264;23.826;2022-11-13T10:57:18;95199.88;;;8.78;80.26
61870;BME280;47810;42.264;23.826;2022-11-13T10:59:46;95198.91;;;8.80;80.00
61870;BME280;47810;42.264;23.826;2022-11-13T11:02:19;95190.03;;;8.83;79.96
61870;BME280;47810;42.264;23.826;2022-11-13T11:04:45;95194.28;;;8.87;79.04
61870;BME280;47810;42.264;23.826;2022-11-13T11:07:15;95190.09;;;8.81;79.43
61870;BME280;47810;42.264;23.826;2022-11-13T11:09:41;95190.81;;;8.85;79.29
61870;BME280;47810;42.264;23.826;2022-11-13T11:12:11;95182.38;;;8.77;79.23
61870;BME280;47810;42.264;23.826;2022-11-13T11:14:56;95188.66;;;8.96;78.83
61870;BME280;47810;42.264;23.826;2022-11-13T11:20:03;95176.03;;;9.04;78.08
61870;BME280;47810;42.264;23.826;2022-11-13T11:22:32;95178.34;;;8.90;78.64
61870;BME280;47810;42.264;23.826;2022-11-13T11:27:31;95168.28;;;8.78;79.00
61870;BME280;47810;42.264;23.826;2022-11-13T11:30:03;95175.03;;;8.85;78.93
61870;BME280;47810;42.264;23.826;2022-11-13T11:32:31;95165.50;;;9.04;78.70
61870;BME280;47810;42.264;23.826;2022-11-13T11:37:35;95163.50;;;9.11;78.69
61870;BME280;47810;42.264;23.826;2022-11-13T11:40:05;95169.03;;;9.27;78.48
61870;BME280;47810;42.264;23.826;2022-11-13T11:42:47;95165.22;;;9.34;77.60
61870;BME280;47810;42.264;23.826;2022-11-13T11:47:45;95158.56;;;9.47;77.31
61870;BME280;47810;42.264;23.826;2022-11-13T11:50:14;95162.97;;;9.25;77.43
61870;BME280;47810;42.264;23.826;2022-11-13T11:57:48;95152.69;;;9.19;77.73
61870;BME280;47810;42.264;23.826;2022-11-13T12:00:20;95146.16;;;9.49;76.78
61870;BME280;47810;42.264;23.826;2022-11-13T12:05:26;95147.91;;;9.50;76.05
61870;BME280;47810;42.264;23.826;2022-11-13T12:18:02;95154.41;;;9.42;77.17
61870;BME280;47810;42.264;23.826;2022-11-13T12:20:43;95139.06;;;9.29;77.08
61870;BME280;47810;42.264;23.826;2022-11-13T12:23:31;95143.97;;;9.39;77.42
61870;BME280;47810;42.264;23.826;2022-11-13T12:29:09;95144.34;;;9.29;77.53
61870;BME280;47810;42.264;23.826;2022-11-13T12:36:24;95134.91;;;9.46;77.23
61870;BME280;47810;42.264;23.826;2022-11-13T12:41:43;95131.28;;;9.48;77.51
61870;BME280;47810;42.264;23.826;2022-11-13T12:44:26;95131.19;;;9.72;76.73
61870;BME280;47810;42.264;23.826;2022-11-13T12:46:59;95126.03;;;9.69;76.80
61870;BME280;47810;42.264;23.826;2022-11-13T12:49:26;95122.03;;;9.60;76.98
61870;BME280;47810;42.264;23.826;2022-11-13T12:51:55;95120.88;;;9.66;77.42
61870;BME280;47810;42.264;23.826;2022-11-13T12:54:34;95129.97;;;9.59;77.22
61870;BME280;47810;42.264;23.826;2022-11-13T12:59:39;95133.66;;;9.54;76.97
61870;BME280;47810;42.264;23.826;2022-11-13T13:10:04;95123.91;;;9.56;77.42
61870;BME280;47810;42.264;23.826;2022-11-13T13:15:06;95116.16;;;9.53;77.42
61870;BME280;47810;42.264;23.826;2022-11-13T13:17:34;95120.38;;;9.57;77.45
61870;BME280;47810;42.264;23.826;2022-11-13T13:20:02;95117.72;;;9.57;77.97
61870;BME280;47810;42.264;23.826;2022-11-13T13:22:29;95119.31;;;9.62;78.16
61870;BME280;47810;42.264;23.826;2022-11-13T13:25:30;95113.69;;;9.49;78.09
61870;BME280;47810;42.264;23.826;2022-11-13T13:27:58;95121.06;;;9.41;77.87
61870;BME280;47810;42.264;23.826;2022-11-13T13:30:24;95114.53;;;9.49;78.19
61870;BME280;47810;42.264;23.826;2022-11-13T13:35:18;95111.16;;;9.46;77.83
61870;BME280;47810;42.264;23.826;2022-11-13T13:48:15;95111.50;;;9.38;77.51
61870;BME280;47810;42.264;23.826;2022-11-13T13:50:45;95111.13;;;9.47;77.53
61870;BME280;47810;42.264;23.826;2022-11-13T13:53:13;95105.16;;;9.85;76.50
61870;BME280;47810;42.264;23.826;2022-11-13T13:55:58;95104.56;;;9.78;76.50
61870;BME280;47810;42.264;23.826;2022-11-13T13:58:30;95099.53;;;9.72;76.80
61870;BME280;47810;42.264;23.826;2022-11-13T14:00:59;95101.91;;;9.57;76.91
61870;BME280;47810;42.264;23.826;2022-11-13T14:03:25;95105.72;;;9.50;77.21
61870;BME280;47810;42.264;23.826;2022-11-13T14:05:52;95106.09;;;9.41;77.37
61870;BME280;47810;42.264;23.826;2022-11-13T14:08:20;95099.22;;;9.37;77.55
61870;BME280;47810;42.264;23.826;2022-11-13T14:10:46;95104.25;;;9.43;77.34
61870;BME280;47810;42.264;23.826;2022-11-13T14:13:12;95101.34;;;9.49;77.52
61870;BME280;47810;42.264;23.826;2022-11-13T14:15:38;95103.97;;;9.71;77.68
61870;BME280;47810;42.264;23.826;2022-11-13T14:18:08;95102.47;;;9.86;77.05
61870;BME280;47810;42.264;23.826;2022-11-13T14:20:40;95096.47;;;9.83;76.95
61870;BME280;47810;42.264;23.826;2022-11-13T14:23:10;95101.41;;;9.70;77.23